createdAt,value
2024-03-12T00:01:55.202Z,54.76
2024-03-12T00:04:23.735Z,54.77
2024-03-12T00:06:52.306Z,54.85
2024-03-12T00:09:23.588Z,54.84
2024-03-12T00:11:53.898Z,55.00
2024-03-12T00:14:22.357Z,55.12
2024-03-12T00:16:50.838Z,55.02
2024-03-12T00:19:19.544Z,54.97
2024-03-12T00:21:48.160Z,54.81
2024-03-12T00:24:16.648Z,54.87
2024-03-12T00:26:48.808Z,54.84
2024-03-12T00:29:20.386Z,54.78
2024-03-12T00:31:48.808Z,54.61
2024-03-12T00:34:17.259Z,54.71
2024-03-12T00:36:47.274Z,54.88
2024-03-12T00:39:17.060Z,54.87
2024-03-12T00:41:46.855Z,54.77
2024-03-12T00:44:15.473Z,54.75
2024-03-12T00:46:43.913Z,54.82
2024-03-12T00:49:12.366Z,54.75
2024-03-12T00:51:41.615Z,54.71
2024-03-12T00:54:12.101Z,54.58
2024-03-12T00:56:40.521Z,54.53
2024-03-12T00:59:11.405Z,54.42
2024-03-12T01:01:40.056Z,54.49
2024-03-12T01:04:08.619Z,54.50
2024-03-12T01:06:37.089Z,54.44
2024-03-12T01:09:07.585Z,54.50
2024-03-12T01:11:36.668Z,54.55
2024-03-12T01:14:05.711Z,54.51
2024-03-12T01:16:35.526Z,54.48
2024-03-12T01:19:06.911Z,54.47
2024-03-12T01:21:35.388Z,54.46
2024-03-12T01:24:05.955Z,54.42
2024-03-12T01:26:35.803Z,54.36
2024-03-12T01:29:04.776Z,54.38
2024-03-12T01:31:33.577Z,54.48
2024-03-12T01:34:03.810Z,54.48
2024-03-12T01:36:36.562Z,54.45
2024-03-12T01:39:09.317Z,54.46
2024-03-12T01:41:43.026Z,54.40
2024-03-12T01:44:11.768Z,54.41
2024-03-12T01:46:40.980Z,54.35
2024-03-12T01:49:11.510Z,54.23
2024-03-12T01:51:40.444Z,54.25
2024-03-12T01:54:10.119Z,54.36
2024-03-12T01:56:38.625Z,54.48
2024-03-12T01:59:07.345Z,54.44
2024-03-12T02:01:37.972Z,54.49
2024-03-12T02:04:08.184Z,54.58
2024-03-12T02:06:39.991Z,54.49
2024-03-12T02:09:08.472Z,54.60
2024-03-12T02:11:37.382Z,54.77
2024-03-12T02:14:08.567Z,54.86
2024-03-12T02:16:40.169Z,54.84
2024-03-12T02:19:09.777Z,54.94
2024-03-12T02:21:39.667Z,54.97
2024-03-12T02:24:10.007Z,55.04
2024-03-12T02:26:38.469Z,55.10
2024-03-12T02:29:08.940Z,54.99
2024-03-12T02:31:37.764Z,55.04
2024-03-12T02:34:06.426Z,55.01
2024-03-12T02:36:38.321Z,55.05
2024-03-12T02:39:08.263Z,55.00
2024-03-12T02:41:38.109Z,54.91
2024-03-12T02:44:07.476Z,55.02
2024-03-12T02:46:36.122Z,55.00
2024-03-12T02:49:04.983Z,54.92
2024-03-12T02:51:33.528Z,54.94
2024-03-12T02:54:02.117Z,55.04
2024-03-12T02:56:30.468Z,55.09
2024-03-12T02:59:00.328Z,55.08
2024-03-12T03:01:28.892Z,55.22
2024-03-12T03:03:58.786Z,55.14
2024-03-12T03:06:27.263Z,55.24
2024-03-12T03:08:55.671Z,55.36
2024-03-12T03:11:24.116Z,55.42
2024-03-12T03:13:52.775Z,55.46
2024-03-12T03:16:23.768Z,55.23
2024-03-12T03:18:54.423Z,55.30
2024-03-12T03:21:22.940Z,55.23
2024-03-12T03:23:51.353Z,55.04
2024-03-12T03:26:19.833Z,54.95
2024-03-12T03:28:49.621Z,55.13
2024-03-12T03:31:18.100Z,55.31
2024-03-12T03:33:48.723Z,55.44
2024-03-12T03:36:18.116Z,55.60
2024-03-12T03:38:46.576Z,55.77
2024-03-12T03:41:14.944Z,55.78
2024-03-12T03:43:44.316Z,55.74
2024-03-12T03:46:12.824Z,55.79
2024-03-12T03:48:41.767Z,56.03
2024-03-12T03:51:11.577Z,56.00
2024-03-12T03:53:41.508Z,56.36
2024-03-12T03:56:17.041Z,56.35
2024-03-12T03:58:45.814Z,56.27
2024-03-12T04:01:15.081Z,56.26
2024-03-12T04:03:43.730Z,56.23
2024-03-12T04:06:13.615Z,56.15
2024-03-12T04:08:42.081Z,56.13
2024-03-12T04:11:11.129Z,56.08
2024-03-12T04:13:41.514Z,55.93
2024-03-12T04:16:11.751Z,56.04
2024-03-12T04:18:40.334Z,56.10
2024-03-12T04:21:09.177Z,56.19
2024-03-12T04:23:38.997Z,55.89
2024-03-12T04:26:07.530Z,55.92
2024-03-12T04:28:37.662Z,55.91
2024-03-12T04:31:08.337Z,55.84
2024-03-12T04:33:37.524Z,55.63
2024-03-12T04:36:08.222Z,55.50
2024-03-12T04:38:38.160Z,55.45
2024-03-12T04:41:06.790Z,55.33
2024-03-12T04:43:35.203Z,55.07
2024-03-12T04:46:03.857Z,55.04
2024-03-12T04:48:32.498Z,55.03
2024-03-12T04:51:01.031Z,54.91
2024-03-12T04:53:29.468Z,54.86
2024-03-12T04:55:59.506Z,54.74
2024-03-12T04:58:27.895Z,54.69
2024-03-12T05:00:56.375Z,54.62
2024-03-12T05:03:24.833Z,54.62
2024-03-12T05:05:53.266Z,54.59
2024-03-12T05:08:21.735Z,54.52
2024-03-12T05:10:50.175Z,54.55
2024-03-12T05:13:22.824Z,54.52
2024-03-12T05:15:51.387Z,54.49
2024-03-12T05:18:19.871Z,54.43
2024-03-12T05:20:48.455Z,54.39
2024-03-12T05:23:16.840Z,54.43
2024-03-12T05:25:47.572Z,54.47
2024-03-12T05:28:16.263Z,54.49
2024-03-12T05:30:46.103Z,54.59
2024-03-12T05:33:16.312Z,54.67
2024-03-12T05:35:50.813Z,54.54
2024-03-12T05:38:33.784Z,54.44
2024-03-12T05:41:26.561Z,54.49
2024-03-12T05:44:12.429Z,54.41
2024-03-12T05:46:59.667Z,54.20
2024-03-12T05:49:28.169Z,54.20
2024-03-12T05:51:56.921Z,54.27
2024-03-12T05:54:25.579Z,54.39
2024-03-12T05:56:54.036Z,54.43
2024-03-12T05:59:23.943Z,54.40
2024-03-12T06:01:54.021Z,54.51
2024-03-12T06:04:22.569Z,54.48
2024-03-12T06:06:51.056Z,54.39
2024-03-12T06:09:23.907Z,54.42
2024-03-12T06:11:52.474Z,54.55
2024-03-12T06:14:20.964Z,54.38
2024-03-12T06:16:49.337Z,54.72
2024-03-12T06:19:19.178Z,54.68
2024-03-12T06:21:47.691Z,54.71
2024-03-12T06:24:16.169Z,54.72
2024-03-12T06:26:45.236Z,54.75
2024-03-12T06:29:15.251Z,54.63
2024-03-12T06:31:43.689Z,54.58
2024-03-12T06:34:12.127Z,54.63
2024-03-12T06:36:41.914Z,54.49
2024-03-12T06:39:14.961Z,54.42
2024-03-12T06:41:43.544Z,54.20
2024-03-12T06:44:16.917Z,54.26
2024-03-12T06:46:46.289Z,54.27
2024-03-12T06:49:15.493Z,53.99
2024-03-12T06:51:48.475Z,53.78
2024-03-12T06:54:17.005Z,54.04
2024-03-12T06:56:47.781Z,53.99
2024-03-12T06:59:16.947Z,53.90
2024-03-12T07:01:46.803Z,53.75
2024-03-12T07:04:15.300Z,53.63
2024-03-12T07:06:44.265Z,53.65
2024-03-12T07:09:24.269Z,53.63
2024-03-12T07:11:53.380Z,53.65
2024-03-12T07:14:28.798Z,53.99
2024-03-12T07:16:57.904Z,54.22
2024-03-12T07:19:26.547Z,54.01
2024-03-12T07:21:56.095Z,54.31
2024-03-12T07:24:26.029Z,54.40
2024-03-12T07:26:54.482Z,54.30
2024-03-12T07:29:24.781Z,54.02
2024-03-12T07:31:54.331Z,54.11
2024-03-12T07:34:22.813Z,54.31
2024-03-12T07:36:51.374Z,54.39
2024-03-12T07:39:26.861Z,54.70
2024-03-12T07:41:57.422Z,54.55
2024-03-12T07:44:25.928Z,54.72
2024-03-12T07:46:56.129Z,54.84
2024-03-12T07:49:25.019Z,54.81
2024-03-12T07:51:53.791Z,54.75
2024-03-12T07:54:22.370Z,54.89
2024-03-12T07:56:51.063Z,55.02
2024-03-12T07:59:23.421Z,54.86
2024-03-12T08:01:54.226Z,54.93
2024-03-12T08:04:23.470Z,55.01
2024-03-12T08:06:51.957Z,55.10
2024-03-12T08:09:20.687Z,55.08
2024-03-12T08:11:49.478Z,54.87
2024-03-12T08:14:19.044Z,54.95
2024-03-12T08:16:50.482Z,54.98
2024-03-12T08:19:19.087Z,54.94
2024-03-12T08:21:47.950Z,55.29
2024-03-12T08:24:16.797Z,55.67
2024-03-12T08:26:45.207Z,55.81
2024-03-12T08:29:14.874Z,55.75
2024-03-12T08:31:47.691Z,55.66
2024-03-12T08:34:22.379Z,55.79
2024-03-12T08:36:51.330Z,56.13
2024-03-12T08:39:20.224Z,56.15
2024-03-12T08:41:48.607Z,56.23
2024-03-12T08:44:17.091Z,56.18
2024-03-12T08:46:46.226Z,56.24
2024-03-12T08:49:14.875Z,56.13
2024-03-12T08:51:44.759Z,55.99
2024-03-12T08:54:15.181Z,56.19
2024-03-12T08:56:44.532Z,56.23
2024-03-12T08:59:17.126Z,56.55
2024-03-12T09:01:46.083Z,56.43
2024-03-12T09:04:14.940Z,56.58
2024-03-12T09:06:44.829Z,56.71
2024-03-12T09:09:17.285Z,56.56
2024-03-12T09:11:47.792Z,56.45
2024-03-12T09:14:16.233Z,56.65
2024-03-12T09:16:44.673Z,56.51
2024-03-12T09:19:14.633Z,56.19
2024-03-12T09:21:44.932Z,55.90
2024-03-12T09:24:14.758Z,55.77
2024-03-12T09:26:45.378Z,55.94
2024-03-12T09:29:14.705Z,55.90
2024-03-12T09:31:44.238Z,55.67
2024-03-12T09:34:13.583Z,55.95
2024-03-12T09:36:44.558Z,55.96
2024-03-12T09:39:12.981Z,55.65
2024-03-12T09:41:46.144Z,55.15
2024-03-12T09:44:14.778Z,55.34
2024-03-12T09:46:43.641Z,55.39
2024-03-12T09:49:14.648Z,55.39
2024-03-12T09:51:45.779Z,54.99
2024-03-12T09:54:14.283Z,54.98
2024-03-12T09:56:44.115Z,55.04
2024-03-12T09:59:12.887Z,54.82
2024-03-12T10:01:41.457Z,54.55
2024-03-12T10:04:14.126Z,53.89
2024-03-12T10:06:42.878Z,54.07
2024-03-12T10:09:18.656Z,53.59
2024-03-12T10:11:47.222Z,53.62
2024-03-12T10:14:18.812Z,53.55
2024-03-12T10:16:47.415Z,53.62
2024-03-12T10:19:16.970Z,53.65
2024-03-12T10:21:47.384Z,53.71
2024-03-12T10:24:22.747Z,53.65
2024-03-12T10:26:52.009Z,53.88
2024-03-12T10:29:20.877Z,53.86
2024-03-12T10:31:51.462Z,54.07
2024-03-12T10:34:21.217Z,53.96
2024-03-12T10:36:51.533Z,53.91
2024-03-12T10:39:30.106Z,53.62
2024-03-12T10:42:00.852Z,53.81
2024-03-12T10:44:32.020Z,53.56
2024-03-12T10:47:02.311Z,53.53
2024-03-12T10:49:31.898Z,53.35
2024-03-12T10:52:00.874Z,53.28
2024-03-12T10:54:36.210Z,52.91
2024-03-12T10:57:07.925Z,53.07
2024-03-12T10:59:39.046Z,52.87
2024-03-12T11:02:09.110Z,53.06
2024-03-12T11:04:38.529Z,53.03
2024-03-12T11:07:09.753Z,53.03
2024-03-12T11:09:41.816Z,53.12
2024-03-12T11:12:10.960Z,53.20
2024-03-12T11:14:40.027Z,53.27
2024-03-12T11:17:26.856Z,52.99
2024-03-12T11:19:57.496Z,53.70
2024-03-12T11:22:28.318Z,53.85
2024-03-12T11:24:59.390Z,53.86
2024-03-12T11:27:28.417Z,54.12
2024-03-12T11:30:17.538Z,53.61
2024-03-12T11:32:50.152Z,54.10
2024-03-12T11:35:34.337Z,54.10
2024-03-12T11:38:11.295Z,54.20
2024-03-12T11:40:50.393Z,53.78
2024-03-12T11:43:39.347Z,53.52
2024-03-12T11:46:09.222Z,53.52
2024-03-12T11:48:40.137Z,53.44
2024-03-12T11:51:13.106Z,53.04
2024-03-12T11:53:43.361Z,52.62
2024-03-12T11:56:19.976Z,52.53
2024-03-12T11:58:59.615Z,52.83
2024-03-12T12:01:35.132Z,52.77
2024-03-12T12:04:06.330Z,52.75
2024-03-12T12:06:35.884Z,52.75
2024-03-12T12:09:07.003Z,52.79
2024-03-12T12:11:38.957Z,52.98
2024-03-12T12:14:10.564Z,53.01
2024-03-12T12:16:40.611Z,52.88
2024-03-12T12:19:16.650Z,52.82
2024-03-12T12:21:51.339Z,52.77
2024-03-12T12:24:20.136Z,52.71
2024-03-12T12:26:50.087Z,52.68
2024-03-12T12:29:18.992Z,52.78
2024-03-12T12:41:47.804Z,57.71
2024-03-12T12:44:18.937Z,55.65
2024-03-12T12:46:49.378Z,54.98
2024-03-12T12:49:18.790Z,54.47
2024-03-12T12:51:48.283Z,53.96
2024-03-12T12:54:19.427Z,53.67
2024-03-12T12:56:50.593Z,53.36
2024-03-12T12:59:21.691Z,53.24
2024-03-12T13:01:51.125Z,52.94
2024-03-12T13:04:23.346Z,52.93
2024-03-12T13:06:53.011Z,52.69
2024-03-12T13:09:32.796Z,52.37
2024-03-12T13:12:04.861Z,52.58
2024-03-12T13:14:34.901Z,52.45
2024-03-12T13:17:04.783Z,52.60
2024-03-12T13:19:34.054Z,52.91
2024-03-12T13:22:10.220Z,52.84
2024-03-12T13:24:45.033Z,52.90
2024-03-12T13:27:15.800Z,53.08
2024-03-12T13:29:44.602Z,53.43
2024-03-12T13:32:13.870Z,53.80
2024-03-12T13:34:43.116Z,54.01
2024-03-12T13:37:13.785Z,54.04
2024-03-12T13:39:42.672Z,54.26
2024-03-12T13:42:11.545Z,54.34
2024-03-12T13:44:41.390Z,54.71
2024-03-12T13:47:09.846Z,55.06
2024-03-12T13:49:38.276Z,55.33
2024-03-12T13:52:07.873Z,55.24
2024-03-12T13:54:36.708Z,55.39
2024-03-12T13:57:05.384Z,55.49
2024-03-12T13:59:34.640Z,55.81
2024-03-12T14:02:04.703Z,55.74
2024-03-12T14:04:33.643Z,55.71
2024-03-12T14:07:02.262Z,55.46
2024-03-12T14:09:30.727Z,55.42
2024-03-12T14:11:59.985Z,55.27
2024-03-12T14:14:29.297Z,54.99
2024-03-12T14:16:57.724Z,54.97
2024-03-12T14:19:27.560Z,54.72
2024-03-12T14:21:56.143Z,54.75
2024-03-12T14:24:24.653Z,54.60
2024-03-12T14:26:53.081Z,54.39
2024-03-12T14:29:21.416Z,54.08
2024-03-12T14:31:50.157Z,54.08
2024-03-12T14:34:18.628Z,54.04
2024-03-12T14:36:48.497Z,53.91
2024-03-12T14:39:16.938Z,54.17
2024-03-12T14:41:45.409Z,54.22
2024-03-12T14:44:14.484Z,54.27
2024-03-12T14:46:43.341Z,54.20
2024-03-12T14:49:14.162Z,54.30
2024-03-12T14:51:42.713Z,54.49
2024-03-12T14:54:12.580Z,54.78
2024-03-12T14:56:41.594Z,54.99
2024-03-12T14:59:10.433Z,55.14
2024-03-12T15:01:38.907Z,55.39
2024-03-12T15:04:08.061Z,55.45
2024-03-12T15:06:37.050Z,55.61
2024-03-12T15:09:06.191Z,55.68
2024-03-12T15:11:36.076Z,55.72
2024-03-12T15:14:07.375Z,55.70
2024-03-12T15:16:37.222Z,55.87
2024-03-12T15:19:06.586Z,55.98
2024-03-12T15:21:35.167Z,56.10
2024-03-12T15:24:03.570Z,55.97
2024-03-12T15:26:32.104Z,56.16
2024-03-12T15:29:03.033Z,56.19
2024-03-12T15:31:31.596Z,56.47
2024-03-12T15:34:00.064Z,56.60
2024-03-12T15:36:28.498Z,56.54
2024-03-12T15:38:56.885Z,56.84
2024-03-12T15:41:26.656Z,56.93
2024-03-12T15:43:55.887Z,56.74
2024-03-12T15:46:25.718Z,56.52
2024-03-12T15:48:54.344Z,56.64
2024-03-12T15:51:24.689Z,56.52
2024-03-12T15:53:53.150Z,56.32
2024-03-12T15:56:22.974Z,55.90
2024-03-12T15:58:52.356Z,56.07
2024-03-12T16:01:23.444Z,55.78
2024-03-12T16:03:53.601Z,55.64
2024-03-12T16:06:22.112Z,55.47
2024-03-12T16:08:51.715Z,55.36
2024-03-12T16:11:20.255Z,55.02
2024-03-12T16:13:48.725Z,55.03
2024-03-12T16:16:17.289Z,54.91
2024-03-12T16:18:45.734Z,54.80
2024-03-12T16:21:15.614Z,54.71
2024-03-12T16:23:43.926Z,54.74
2024-03-12T16:26:12.317Z,54.81
2024-03-12T16:28:41.260Z,54.72
2024-03-12T16:31:09.895Z,54.55
2024-03-12T16:33:41.983Z,54.78
2024-03-12T16:36:11.113Z,55.01
2024-03-12T16:38:40.928Z,55.05
2024-03-12T16:41:09.986Z,55.15
2024-03-12T16:43:38.336Z,55.12
2024-03-12T16:46:07.155Z,55.26
2024-03-12T16:48:39.669Z,55.43
2024-03-12T16:51:09.436Z,55.43
2024-03-12T16:53:37.875Z,55.52
2024-03-12T16:56:08.986Z,55.77
2024-03-12T16:58:38.017Z,56.16
2024-03-12T17:01:07.884Z,56.07
2024-03-12T17:03:36.915Z,56.10
2024-03-12T17:06:06.832Z,56.07
2024-03-12T17:08:35.856Z,56.00
2024-03-12T17:11:05.048Z,56.07
2024-03-12T17:13:35.730Z,56.02
2024-03-12T17:16:08.258Z,55.91
2024-03-12T17:18:37.166Z,55.97
2024-03-12T17:21:06.061Z,56.02
2024-03-12T17:23:35.176Z,56.17
2024-03-12T17:26:05.582Z,56.23
2024-03-12T17:28:36.107Z,56.11
2024-03-12T17:31:06.679Z,56.02
2024-03-12T17:33:35.704Z,55.97
2024-03-12T17:36:07.344Z,55.97
2024-03-12T17:38:36.305Z,56.07
2024-03-12T17:41:06.301Z,56.07
2024-03-12T17:43:37.932Z,55.96
2024-03-12T17:46:09.115Z,55.93
2024-03-12T17:48:41.489Z,56.02
2024-03-12T17:51:11.576Z,55.97
2024-03-12T17:53:41.379Z,56.01
2024-03-12T17:56:12.863Z,55.97
2024-03-12T17:58:47.356Z,55.99
2024-03-12T18:01:17.087Z,55.98
2024-03-12T18:03:46.117Z,55.85
2024-03-12T18:06:17.714Z,55.53
2024-03-12T18:08:53.613Z,55.49
2024-03-12T18:11:22.432Z,55.75
2024-03-12T18:13:52.753Z,55.79
2024-03-12T18:16:21.308Z,55.81
2024-03-12T18:18:49.870Z,55.58
2024-03-12T18:21:18.538Z,55.49
2024-03-12T18:23:46.989Z,55.44
2024-03-12T18:26:18.847Z,55.42
2024-03-12T18:28:47.374Z,55.53
2024-03-12T18:31:17.841Z,55.62
2024-03-12T18:33:46.277Z,55.56
2024-03-12T18:36:15.307Z,55.39
2024-03-12T18:38:43.797Z,55.55
2024-03-12T18:41:14.122Z,55.62
2024-03-12T18:43:43.159Z,55.61
2024-03-12T18:46:11.657Z,55.57
2024-03-12T18:48:42.835Z,55.54
2024-03-12T18:51:12.049Z,55.55
2024-03-12T18:53:41.283Z,55.61
2024-03-12T18:56:10.872Z,55.72
2024-03-12T18:58:39.957Z,55.69
2024-03-12T19:01:09.677Z,55.79
2024-03-12T19:03:50.408Z,55.45
2024-03-12T19:06:26.211Z,55.98
2024-03-12T19:08:56.684Z,55.95
2024-03-12T19:11:25.931Z,55.98
2024-03-12T19:13:55.904Z,56.13
2024-03-12T19:16:25.842Z,56.26
2024-03-12T19:18:56.061Z,56.23
2024-03-12T19:21:25.043Z,56.16
2024-03-12T19:23:55.730Z,56.08
2024-03-12T19:26:24.192Z,56.09
2024-03-12T19:28:56.548Z,56.24
2024-03-12T19:31:26.012Z,56.12
2024-03-12T19:33:56.341Z,55.94
2024-03-12T19:36:43.262Z,56.03
2024-03-12T19:39:13.205Z,56.05
2024-03-12T19:41:45.851Z,56.10
2024-03-12T19:44:15.218Z,55.97
2024-03-12T19:46:44.254Z,55.97
2024-03-12T19:49:15.305Z,55.94
2024-03-12T19:51:44.348Z,55.93
2024-03-12T19:54:17.176Z,56.00
2024-03-12T19:56:47.790Z,56.13
2024-03-12T19:59:16.352Z,56.09
2024-03-12T20:01:45.348Z,55.97
2024-03-12T20:04:15.265Z,55.94
2024-03-12T20:06:45.275Z,55.95
2024-03-12T20:09:23.273Z,56.00
2024-03-12T20:11:53.119Z,55.85
2024-03-12T20:14:25.062Z,55.84
2024-03-12T20:16:53.617Z,55.77
2024-03-12T20:19:24.018Z,55.84
2024-03-12T20:21:52.463Z,55.70
2024-03-12T20:24:21.180Z,55.79
2024-03-12T20:26:49.638Z,56.23
2024-03-12T20:29:18.019Z,56.13
2024-03-12T20:31:46.923Z,56.07
2024-03-12T20:34:17.043Z,56.74
2024-03-12T20:36:47.738Z,56.62
2024-03-12T20:39:16.464Z,56.52
2024-03-12T20:41:44.850Z,56.31
2024-03-12T20:44:13.250Z,56.30
2024-03-12T20:46:41.713Z,56.34
2024-03-12T20:49:10.207Z,56.43
2024-03-12T20:51:38.664Z,56.47
2024-03-12T20:54:08.523Z,56.44
2024-03-12T20:56:36.985Z,56.36
2024-03-12T20:59:06.289Z,56.48
2024-03-12T21:01:35.186Z,56.82
2024-03-12T21:04:06.687Z,56.97
2024-03-12T21:06:35.336Z,57.01
2024-03-12T21:09:11.417Z,56.82
2024-03-12T21:11:41.369Z,56.65
2024-03-12T21:14:09.834Z,56.73
2024-03-12T21:16:38.271Z,56.81
2024-03-12T21:19:06.721Z,57.00
2024-03-12T21:21:35.181Z,56.94
2024-03-12T21:24:03.685Z,57.09
2024-03-12T21:26:33.493Z,57.09
2024-03-12T21:29:03.326Z,57.25
2024-03-12T21:31:32.371Z,57.30
2024-03-12T21:34:02.068Z,57.26
2024-03-12T21:36:30.571Z,57.42
2024-03-12T21:38:59.123Z,57.22
2024-03-12T21:41:27.582Z,57.02
2024-03-12T21:43:56.062Z,57.06
2024-03-12T21:46:25.924Z,57.02
2024-03-12T21:48:54.382Z,57.03
2024-03-12T21:51:27.907Z,57.10
2024-03-12T21:53:56.398Z,57.03
2024-03-12T21:56:25.186Z,56.99
2024-03-12T21:58:54.351Z,57.14
2024-03-12T22:01:22.903Z,57.09
2024-03-12T22:03:54.572Z,56.93
2024-03-12T22:06:24.187Z,57.19
2024-03-12T22:08:52.841Z,57.17
2024-03-12T22:11:21.506Z,57.13
2024-03-12T22:13:49.977Z,57.15
2024-03-12T22:16:19.005Z,57.06
2024-03-12T22:18:47.935Z,57.13
2024-03-12T22:21:23.708Z,57.06
2024-03-12T22:23:52.127Z,57.35
2024-03-12T22:26:20.536Z,57.29
2024-03-12T22:28:49.097Z,57.25
2024-03-12T22:31:17.531Z,57.40
2024-03-12T22:33:46.034Z,57.57
2024-03-12T22:36:14.585Z,57.59
2024-03-12T22:38:44.963Z,57.56
2024-03-12T22:41:14.292Z,57.78
2024-03-12T22:43:43.509Z,57.71
2024-03-12T22:46:12.565Z,57.71
2024-03-12T22:48:43.857Z,57.85
2024-03-12T22:51:13.782Z,57.85
2024-03-12T22:53:46.813Z,57.75
2024-03-12T22:56:20.566Z,57.44
2024-03-12T22:58:50.148Z,57.48
2024-03-12T23:01:19.059Z,57.86
2024-03-12T23:03:47.933Z,57.67
2024-03-12T23:06:17.005Z,57.54
2024-03-12T23:08:46.085Z,57.24
2024-03-12T23:11:15.723Z,57.20
2024-03-12T23:13:45.603Z,57.19
2024-03-12T23:16:16.316Z,57.31
2024-03-12T23:18:46.810Z,57.21
2024-03-12T23:21:18.529Z,57.32
2024-03-12T23:23:47.166Z,57.80
2024-03-12T23:26:18.181Z,57.83
2024-03-12T23:28:48.450Z,57.63
2024-03-12T23:31:18.235Z,57.65
2024-03-12T23:33:46.709Z,57.87
2024-03-12T23:36:21.159Z,57.88
2024-03-12T23:38:50.040Z,58.00
2024-03-12T23:41:18.590Z,58.01
2024-03-12T23:43:48.385Z,58.14
2024-03-12T23:46:16.919Z,58.16
2024-03-12T23:48:45.497Z,57.99
2024-03-12T23:51:14.105Z,58.51
2024-03-12T23:53:42.914Z,58.26
2024-03-12T23:56:12.973Z,58.29
2024-03-12T23:58:41.450Z,58.06
